createdAt,value
2019-04-21T00:02:26.512Z,74.38
2019-04-21T00:05:49.892Z,74.66
2019-04-21T00:08:57.937Z,74.97
2019-04-21T00:12:05.721Z,74.93
2019-04-21T00:14:57.914Z,74.56
2019-04-21T00:18:01.077Z,74.38
2019-04-21T00:21:11.724Z,74.39
2019-04-21T00:24:24.238Z,74.48
2019-04-21T00:27:32.426Z,74.78
2019-04-21T00:30:44.446Z,74.85
2019-04-21T00:33:33.516Z,75.04
2019-04-21T00:36:47.249Z,75.80
2019-04-21T00:40:03.753Z,76.17
2019-04-21T00:43:05.069Z,76.91
2019-04-21T00:46:04.758Z,77.67
2019-04-21T00:49:18.318Z,78.91
2019-04-21T00:53:00.775Z,79.83
2019-04-21T00:56:08.627Z,80.78
2019-04-21T00:59:17.990Z,81.60
2019-04-21T01:02:20.228Z,81.76
2019-04-21T01:05:22.537Z,81.67
2019-04-21T01:08:28.223Z,82.03
2019-04-21T01:11:38.995Z,82.71
2019-04-21T01:14:49.692Z,82.22
2019-04-21T01:17:51.874Z,81.51
2019-04-21T01:20:35.802Z,80.94
2019-04-21T01:23:40.332Z,80.67
2019-04-21T01:26:56.776Z,80.08
2019-04-21T01:30:14.303Z,80.15
2019-04-21T01:33:21.567Z,80.34
2019-04-21T01:36:18.346Z,79.80
2019-04-21T01:39:39.338Z,79.46
2019-04-21T01:43:13.670Z,79.31
2019-04-21T01:46:13.917Z,79.75
2019-04-21T01:49:21.887Z,80.87
2019-04-21T01:52:38.236Z,80.81
2019-04-21T01:56:01.868Z,79.87
2019-04-21T01:58:54.004Z,79.41
2019-04-21T02:02:16.016Z,79.80
2019-04-21T02:05:27.030Z,79.87
2019-04-21T02:08:21.555Z,79.82
2019-04-21T02:11:37.318Z,80.15
2019-04-21T02:14:45.855Z,80.08
2019-04-21T02:17:49.822Z,79.74
2019-04-21T02:20:42.268Z,79.63
2019-04-21T02:24:05.703Z,79.71
2019-04-21T02:27:07.539Z,80.38
2019-04-21T02:30:22.392Z,81.37
2019-04-21T02:33:39.255Z,82.42
2019-04-21T02:36:40.424Z,82.81
2019-04-21T02:39:51.376Z,83.03
2019-04-21T02:45:58.644Z,83.92
2019-04-21T02:52:14.242Z,84.57
2019-04-21T02:55:07.342Z,84.63
2019-04-21T02:58:32.012Z,84.35
2019-04-21T03:08:25.322Z,84.18
2019-04-21T03:11:21.999Z,84.36
2019-04-21T03:17:43.839Z,85.19
2019-04-21T03:20:44.288Z,85.40
2019-04-21T03:23:54.086Z,85.51
2019-04-21T03:27:14.284Z,85.87
2019-04-21T03:39:29.508Z,87.51
2019-04-21T03:42:33.806Z,87.34
2019-04-21T03:48:40.691Z,86.98
2019-04-21T03:55:50.990Z,87.08
2019-04-21T03:58:44.955Z,87.23
2019-04-21T04:01:58.090Z,87.10
2019-04-21T04:05:42.341Z,86.75
2019-04-21T04:08:47.573Z,86.28
2019-04-21T04:11:50.512Z,86.03
2019-04-21T04:14:40.773Z,85.86
2019-04-21T04:17:49.936Z,85.87
2019-04-21T04:21:04.480Z,85.59
2019-04-21T04:24:07.362Z,85.38
2019-04-21T04:27:20.949Z,85.31
2019-04-21T04:30:22.403Z,85.12
2019-04-21T04:40:10.418Z,85.77
2019-04-21T04:43:13.201Z,86.19
2019-04-21T04:46:18.427Z,86.26
2019-04-21T04:49:40.017Z,86.31
2019-04-21T04:55:43.424Z,86.51
2019-04-21T05:05:07.036Z,85.00
2019-04-21T05:08:07.631Z,83.79
2019-04-21T05:11:28.391Z,83.01
2019-04-21T05:17:31.000Z,82.02
2019-04-21T05:20:41.828Z,81.68
2019-04-21T05:23:25.648Z,81.44
2019-04-21T05:26:29.910Z,81.50
2019-04-21T05:29:53.961Z,81.37
2019-04-21T05:33:05.729Z,81.30
2019-04-21T05:36:11.032Z,81.37
2019-04-21T05:39:34.746Z,81.25
2019-04-21T05:42:44.138Z,81.17
2019-04-21T05:45:51.937Z,80.86
2019-04-21T05:48:57.910Z,80.48
2019-04-21T05:52:03.739Z,79.92
2019-04-21T05:55:18.064Z,79.70
2019-04-21T05:58:21.400Z,79.58
2019-04-21T06:01:34.490Z,79.74
2019-04-21T06:04:51.732Z,79.58
2019-04-21T06:07:40.650Z,79.40
2019-04-21T06:10:52.493Z,79.25
2019-04-21T06:14:02.576Z,79.15
2019-04-21T06:17:04.515Z,79.11
2019-04-21T06:20:07.922Z,79.04
2019-04-21T06:23:19.092Z,78.79
2019-04-21T06:29:33.333Z,78.57
2019-04-21T06:32:49.127Z,78.63
2019-04-21T06:36:11.394Z,78.66
2019-04-21T06:39:11.653Z,78.55
2019-04-21T06:42:02.536Z,77.93
2019-04-21T06:45:13.029Z,73.27
2019-04-21T06:48:30.170Z,70.21
2019-04-21T06:51:28.890Z,67.01
2019-04-21T06:54:35.644Z,64.82
2019-04-21T06:57:39.975Z,62.49
2019-04-21T07:00:42.459Z,62.03
2019-04-21T07:04:03.652Z,61.25
2019-04-21T07:06:59.243Z,61.61
2019-04-21T07:10:10.383Z,60.24
2019-04-21T07:13:15.217Z,59.83
2019-04-21T07:16:25.710Z,59.12
2019-04-21T07:22:37.541Z,57.07
2019-04-21T07:25:41.211Z,56.74
2019-04-21T07:28:56.348Z,54.86
2019-04-21T07:31:59.248Z,54.75
2019-04-21T07:35:03.624Z,54.32
2019-04-21T07:38:08.361Z,54.55
2019-04-21T07:41:11.328Z,54.79
2019-04-21T07:44:15.003Z,54.35
2019-04-21T07:47:26.783Z,54.60
2019-04-21T07:50:57.830Z,54.26
2019-04-21T07:54:13.359Z,52.89
2019-04-21T07:57:03.991Z,53.13
2019-04-21T08:03:30.004Z,51.58
2019-04-21T08:06:33.722Z,51.58
2019-04-21T08:09:40.752Z,50.78
2019-04-21T08:12:43.191Z,49.62
2019-04-21T08:15:52.919Z,49.19
2019-04-21T08:19:01.280Z,49.44
2019-04-21T08:22:11.002Z,48.54
2019-04-21T08:25:12.082Z,48.54
2019-04-21T08:28:22.489Z,47.25
2019-04-21T08:31:34.370Z,47.25
2019-04-21T08:34:33.919Z,46.67
2019-04-21T08:37:37.069Z,46.67
2019-04-21T08:40:49.104Z,46.78
2019-04-21T08:43:52.682Z,46.62
2019-04-21T08:47:12.864Z,46.62
2019-04-21T08:50:15.307Z,46.30
2019-04-21T08:53:27.415Z,47.10
2019-04-21T08:56:49.575Z,47.10
2019-04-21T09:00:22.934Z,46.31
2019-04-21T09:10:41.009Z,46.55
2019-04-21T09:13:42.990Z,46.19
2019-04-21T09:16:49.118Z,46.22
2019-04-21T09:20:13.833Z,46.79
2019-04-21T09:23:17.224Z,47.89
2019-04-21T09:26:18.561Z,47.95
2019-04-21T09:29:17.241Z,47.74
2019-04-21T09:32:19.652Z,48.06
2019-04-21T09:35:20.819Z,48.24
2019-04-21T09:38:33.801Z,48.54
2019-04-21T09:41:34.792Z,48.54
2019-04-21T09:44:41.007Z,48.90
2019-04-21T09:47:52.255Z,48.96
2019-04-21T09:50:50.911Z,48.45
2019-04-21T09:54:01.874Z,48.83
2019-04-21T09:57:07.736Z,48.58
2019-04-21T10:00:15.216Z,48.50
2019-04-21T10:03:17.289Z,48.43
2019-04-21T10:06:21.050Z,47.82
2019-04-21T10:09:26.434Z,48.45
2019-04-21T10:12:30.799Z,48.57
2019-04-21T10:15:35.576Z,47.87
2019-04-21T10:18:40.342Z,49.05
2019-04-21T10:21:44.813Z,48.14
2019-04-21T10:24:49.329Z,48.81
2019-04-21T10:27:54.940Z,48.08
2019-04-21T10:31:00.670Z,47.53
2019-04-21T10:34:05.353Z,47.53
2019-04-21T10:37:11.118Z,46.85
2019-04-21T10:40:16.208Z,47.21
2019-04-21T10:43:23.698Z,46.86
2019-04-21T10:46:26.864Z,46.71
2019-04-21T10:49:31.254Z,45.78
2019-04-21T10:52:53.572Z,45.63
2019-04-21T10:56:13.564Z,45.91
2019-04-21T10:59:08.039Z,45.80
2019-04-21T11:02:18.965Z,45.55
2019-04-21T11:05:24.846Z,45.12
2019-04-21T11:08:34.081Z,44.79
2019-04-21T11:11:35.569Z,45.49
2019-04-21T11:14:41.070Z,44.90
2019-04-21T11:17:48.858Z,44.19
2019-04-21T11:20:53.440Z,44.51
2019-04-21T11:23:58.496Z,44.22
2019-04-21T11:27:04.530Z,43.98
2019-04-21T11:30:09.640Z,43.86
2019-04-21T11:33:15.371Z,44.34
2019-04-21T11:36:21.501Z,43.04
2019-04-21T11:39:39.263Z,42.72
2019-04-21T11:42:38.087Z,43.01
2019-04-21T11:45:42.763Z,42.55
2019-04-21T11:48:48.374Z,41.86
2019-04-21T11:51:53.222Z,42.62
2019-04-21T11:54:58.577Z,43.14
2019-04-21T11:58:03.574Z,43.08
2019-04-21T12:01:09.581Z,43.23
2019-04-21T12:04:15.964Z,43.06
2019-04-21T12:07:20.776Z,42.59
2019-04-21T12:10:25.165Z,42.75
2019-04-21T12:13:40.318Z,42.30
2019-04-21T12:16:44.980Z,42.02
2019-04-21T12:19:50.658Z,42.30
2019-04-21T12:22:55.428Z,42.34
2019-04-21T12:26:01.079Z,42.68
2019-04-21T12:29:06.013Z,42.24
2019-04-21T12:32:28.407Z,41.96
2019-04-21T12:35:33.543Z,42.27
2019-04-21T12:38:44.658Z,41.36
2019-04-21T12:41:44.657Z,41.59
2019-04-21T12:44:49.529Z,40.89
2019-04-21T12:47:54.052Z,41.93
2019-04-21T12:50:59.811Z,41.88
2019-04-21T12:54:08.101Z,41.86
2019-04-21T12:57:13.804Z,41.44
2019-04-21T13:00:20.782Z,41.22
2019-04-21T13:03:26.560Z,41.51
2019-04-21T13:06:31.805Z,41.45
2019-04-21T13:09:37.550Z,41.72
2019-04-21T13:12:43.787Z,41.11
2019-04-21T13:15:49.838Z,41.45
2019-04-21T13:18:55.379Z,41.76
2019-04-21T13:22:00.210Z,41.32
2019-04-21T13:25:07.625Z,41.80
2019-04-21T13:28:12.556Z,41.75
2019-04-21T13:31:22.352Z,42.16
2019-04-21T13:34:35.908Z,42.25
2019-04-21T13:37:52.658Z,42.79
2019-04-21T13:41:36.701Z,42.76
2019-04-21T13:44:28.942Z,42.05
2019-04-21T13:47:34.674Z,42.15
2019-04-21T13:50:59.534Z,42.68
2019-04-21T13:54:07.282Z,42.35
2019-04-21T13:57:12.516Z,42.12
2019-04-21T14:00:19.709Z,42.66
2019-04-21T14:03:26.746Z,42.33
2019-04-21T14:06:34.537Z,42.51
2019-04-21T14:09:48.949Z,42.81
2019-04-21T14:12:46.703Z,42.71
2019-04-21T14:15:51.882Z,42.99
2019-04-21T14:18:57.207Z,43.43
2019-04-21T14:22:03.438Z,43.06
2019-04-21T14:25:09.943Z,43.57
2019-04-21T14:28:15.648Z,43.60
2019-04-21T14:31:22.213Z,44.26
2019-04-21T14:34:28.038Z,43.94
2019-04-21T14:37:32.968Z,44.96
2019-04-21T14:40:38.796Z,44.27
2019-04-21T14:43:43.922Z,44.12
2019-04-21T14:47:25.451Z,45.41
2019-04-21T14:50:52.480Z,44.62
2019-04-21T14:55:02.771Z,44.63
2019-04-21T14:57:21.472Z,44.28
2019-04-21T15:00:31.266Z,44.59
2019-04-21T15:03:37.559Z,44.92
2019-04-21T15:06:43.291Z,44.86
2019-04-21T15:10:00.726Z,44.69
2019-04-21T15:12:56.009Z,44.79
2019-04-21T15:16:02.655Z,44.83
2019-04-21T15:19:08.650Z,44.28
2019-04-21T15:22:14.502Z,44.18
2019-04-21T15:25:20.168Z,44.54
2019-04-21T15:28:28.379Z,44.67
2019-04-21T15:31:34.817Z,44.17
2019-04-21T15:34:40.228Z,42.53
2019-04-21T15:37:46.335Z,42.86
2019-04-21T15:40:56.059Z,42.48
2019-04-21T15:44:00.621Z,41.39
2019-04-21T15:47:04.345Z,40.92
2019-04-21T15:50:15.507Z,41.78
2019-04-21T15:53:19.373Z,42.21
2019-04-21T15:56:32.994Z,42.92
2019-04-21T16:00:02.815Z,41.36
2019-04-21T16:03:08.713Z,42.70
2019-04-21T16:06:19.420Z,41.93
2019-04-21T16:12:53.806Z,43.03
2019-04-21T16:15:56.624Z,43.09
2019-04-21T16:19:01.426Z,43.98
2019-04-21T16:22:06.595Z,45.14
2019-04-21T16:25:12.872Z,45.25
2019-04-21T16:28:21.673Z,45.45
2019-04-21T16:31:27.918Z,45.98
2019-04-21T16:34:40.335Z,47.20
2019-04-21T16:37:41.597Z,47.46
2019-04-21T16:40:55.566Z,46.89
2019-04-21T16:43:53.299Z,47.25
2019-04-21T16:46:59.320Z,46.93
2019-04-21T16:50:05.572Z,46.57
2019-04-21T16:53:19.909Z,46.69
2019-04-21T16:56:54.005Z,46.49
2019-04-21T17:00:04.408Z,45.96
2019-04-21T17:03:10.448Z,45.57
2019-04-21T17:06:15.294Z,45.34
2019-04-21T17:09:20.947Z,45.62
2019-04-21T17:12:26.808Z,46.00
2019-04-21T17:15:51.484Z,46.17
2019-04-21T17:18:51.389Z,46.25
2019-04-21T17:21:45.748Z,46.58
2019-04-21T17:24:53.168Z,47.38
2019-04-21T17:27:58.747Z,47.97
2019-04-21T17:31:04.689Z,47.86
2019-04-21T17:34:14.507Z,48.96
2019-04-21T17:37:17.242Z,48.56
2019-04-21T17:40:26.313Z,49.52
2019-04-21T17:43:31.971Z,49.93
2019-04-21T17:46:45.860Z,49.93
2019-04-21T17:49:49.124Z,51.55
2019-04-21T17:53:03.442Z,52.81
2019-04-21T17:56:23.410Z,53.99
2019-04-21T17:59:44.785Z,54.01
2019-04-21T18:02:41.359Z,54.97
2019-04-21T18:05:42.418Z,55.86
2019-04-21T18:09:15.571Z,56.37
2019-04-21T18:12:26.238Z,56.61
2019-04-21T18:15:35.981Z,57.65
2019-04-21T18:18:26.554Z,58.63
2019-04-21T18:21:59.881Z,58.49
2019-04-21T18:25:28.374Z,58.58
2019-04-21T18:28:26.253Z,59.55
2019-04-21T18:31:42.697Z,59.79
2019-04-21T18:35:05.070Z,60.04
2019-04-21T18:38:22.571Z,60.12
2019-04-21T18:41:28.726Z,61.14
2019-04-21T18:45:34.357Z,61.14
2019-04-21T18:48:39.856Z,61.72
2019-04-21T18:52:19.376Z,61.72
2019-04-21T18:55:28.205Z,62.80
2019-04-21T18:58:26.663Z,63.82
2019-04-21T19:01:36.568Z,64.92
2019-04-21T19:04:43.141Z,64.92
2019-04-21T19:08:10.499Z,65.61
2019-04-21T19:11:18.912Z,66.05
2019-04-21T19:14:31.695Z,66.30
2019-04-21T19:20:48.667Z,66.44
2019-04-21T19:24:07.201Z,66.17
2019-04-21T19:27:04.592Z,66.17
2019-04-21T19:30:38.481Z,66.77
2019-04-21T19:33:21.567Z,66.77
2019-04-21T19:36:13.399Z,67.72
2019-04-21T19:39:34.957Z,68.84
2019-04-21T19:42:40.788Z,70.02
2019-04-21T19:45:54.050Z,70.89
2019-04-21T19:49:10.330Z,72.50
2019-04-21T19:52:03.998Z,72.50
2019-04-21T19:55:04.571Z,72.99
2019-04-21T19:58:12.699Z,72.88
2019-04-21T20:01:19.347Z,72.53
2019-04-21T20:04:34.329Z,71.36
2019-04-21T20:07:49.576Z,70.56
2019-04-21T20:11:03.860Z,69.43
2019-04-21T20:14:37.630Z,67.90
2019-04-21T20:17:16.525Z,68.44
2019-04-21T20:20:11.265Z,68.91
2019-04-21T20:23:26.132Z,67.03
2019-04-21T20:26:41.585Z,65.46
2019-04-21T20:30:07.131Z,64.08
2019-04-21T20:37:31.515Z,62.48
2019-04-21T20:40:53.604Z,60.95
2019-04-21T20:44:17.195Z,61.07
2019-04-21T20:47:16.048Z,60.98
2019-04-21T20:50:27.496Z,60.82
2019-04-21T20:53:41.549Z,60.12
2019-04-21T20:56:57.558Z,60.25
2019-04-21T21:00:37.185Z,60.10
2019-04-21T21:03:50.189Z,59.93
2019-04-21T21:07:06.190Z,59.95
2019-04-21T21:10:20.895Z,60.25
2019-04-21T21:13:31.891Z,60.59
2019-04-21T21:16:46.371Z,61.36
2019-04-21T21:20:14.517Z,63.34
2019-04-21T21:23:11.798Z,66.32
2019-04-21T21:26:38.461Z,68.24
2019-04-21T21:29:49.936Z,70.00
2019-04-21T21:33:11.356Z,71.80
2019-04-21T21:36:20.983Z,72.18
2019-04-21T21:39:21.834Z,73.67
2019-04-21T21:42:25.899Z,74.69
2019-04-21T21:45:30.374Z,74.85
2019-04-21T21:51:49.978Z,74.16
2019-04-21T21:54:51.917Z,73.75
2019-04-21T21:58:02.466Z,73.62
2019-04-21T22:01:14.783Z,73.49
2019-04-21T22:04:26.883Z,73.29
2019-04-21T22:07:33.177Z,72.20
2019-04-21T22:10:39.193Z,71.19
2019-04-21T22:13:54.737Z,70.19
2019-04-21T22:17:10.961Z,69.09
2019-04-21T22:20:22.522Z,68.81
2019-04-21T22:23:24.139Z,68.37
2019-04-21T22:26:21.148Z,66.23
2019-04-21T22:29:38.171Z,63.83
2019-04-21T22:32:50.271Z,63.08
2019-04-21T22:35:59.212Z,62.88
2019-04-21T22:39:21.013Z,63.26
2019-04-21T22:42:26.610Z,63.14
2019-04-21T22:45:45.403Z,62.83
2019-04-21T22:48:59.726Z,62.89
2019-04-21T22:52:11.288Z,62.73
2019-04-21T22:56:05.774Z,63.03
2019-04-21T22:59:15.073Z,63.05
2019-04-21T23:06:00.575Z,64.34
2019-04-21T23:09:04.557Z,64.76
2019-04-21T23:12:12.469Z,65.34
2019-04-21T23:15:34.532Z,65.76
2019-04-21T23:18:46.372Z,65.76
2019-04-21T23:25:39.244Z,65.46
2019-04-21T23:28:56.813Z,64.86
2019-04-21T23:32:12.360Z,64.80
2019-04-21T23:35:09.260Z,64.96
2019-04-21T23:38:10.969Z,65.14
2019-04-21T23:41:21.486Z,65.96
2019-04-21T23:52:06.286Z,71.02
2019-04-21T23:55:29.424Z,72.21
2019-04-21T23:58:38.869Z,73.93
